Time;durP1;ratioP1;P1;durP2;ratioP2;P2;SDS_P1;SDS_P2;PMS_P1;PMS_P2;Temp;Humidity;BMP_temperature;BMP_pressure;BME280_temperature;BME280_humidity;BME280_pressure;Samples;Min_cycle;Max_cycle;Signal;HPM_P1;HPM_P2
2023/07/13 00:02:09;;;;;;;7.35;3.40;;;15.80;67.40;;;;;;5110872;28;20055;-76
2023/07/13 00:04:34;;;;;;;6.53;3.60;;;15.70;67.30;;;;;;5115070;28;20024;-76
2023/07/13 00:07:00;;;;;;;7.63;3.45;;;15.60;66.40;;;;;;5116931;28;20106;-76
2023/07/13 00:09:26;;;;;;;5.35;3.28;;;15.60;65.90;;;;;;5117973;28;20099;-76
2023/07/13 00:11:54;;;;;;;8.00;3.63;;;15.70;65.20;;;;;;5118114;28;20103;-76
2023/07/13 00:14:26;;;;;;;7.22;3.55;;;15.70;65.30;;;;;;5118091;28;20404;-76
2023/07/13 00:16:53;;;;;;;13.75;4.80;;;15.60;64.90;;;;;;5117157;28;20019;-76
2023/07/13 00:19:18;;;;;;;7.20;4.32;;;15.60;64.70;;;;;;5118047;28;20023;-76
2023/07/13 00:21:44;;;;;;;9.77;3.75;;;15.50;64.20;;;;;;5098939;28;20036;-76
2023/07/13 00:24:16;;;;;;;9.43;3.85;;;15.50;64.30;;;;;;5097419;28;20320;-76
2023/07/13 00:26:45;;;;;;;6.03;3.17;;;15.50;63.80;;;;;;5097370;28;20028;-76
2023/07/13 00:29:12;;;;;;;6.63;3.38;;;15.60;63.00;;;;;;5097333;28;20031;-76
2023/07/13 00:31:38;;;;;;;6.53;3.40;;;15.60;63.40;;;;;;5097258;28;20312;-76
2023/07/13 00:34:03;;;;;;;6.18;3.40;;;15.60;63.60;;;;;;5114530;28;20027;-76
2023/07/13 00:36:30;;;;;;;5.43;3.45;;;15.60;63.60;;;;;;5106346;28;20044;-76
2023/07/13 00:38:56;;;;;;;8.60;3.08;;;15.60;63.80;;;;;;5097182;28;20036;-76
2023/07/13 00:41:22;;;;;;;7.97;3.47;;;15.60;64.40;;;;;;5096998;28;20173;-76
2023/07/13 00:43:47;;;;;;;5.30;2.92;;;15.50;65.50;;;;;;5097166;28;20452;-76
2023/07/13 00:46:24;;;;;;;8.70;3.65;;;15.40;65.70;;;;;;5096981;28;20495;-75
2023/07/13 00:48:51;;;;;;;6.75;2.90;;;15.30;67.60;;;;;;5107488;28;20034;-76
2023/07/13 00:51:28;;;;;;;6.55;3.25;;;15.10;66.90;;;;;;5116073;28;20320;-76
2023/07/13 00:53:56;;;;;;;6.35;3.42;;;15.20;66.10;;;;;;5117290;28;20098;-76
2023/07/13 00:56:23;;;;;;;6.32;3.10;;;15.20;66.10;;;;;;5117105;28;20033;-75
2023/07/13 00:58:50;;;;;;;7.55;3.70;;;15.20;65.90;;;;;;5108641;28;20151;-76
2023/07/13 01:01:15;;;;;;;5.20;2.97;;;15.20;65.20;;;;;;5119337;27;20023;-74
2023/07/13 01:03:41;;;;;;;6.57;3.10;;;15.20;65.60;;;;;;5116551;27;20320;-74
2023/07/13 01:06:08;;;;;;;9.07;3.22;;;15.10;66.00;;;;;;5124340;27;20051;-74
2023/07/13 01:08:33;;;;;;;8.77;3.42;;;15.10;66.80;;;;;;5116971;28;20016;-74
2023/07/13 01:10:59;;;;;;;6.57;3.03;;;15.00;66.80;;;;;;5117026;28;20027;-74
2023/07/13 01:13:25;;;;;;;6.75;2.95;;;15.00;66.70;;;;;;5114477;28;20115;-76
2023/07/13 01:15:52;;;;;;;7.68;3.38;;;15.00;66.70;;;;;;5111738;28;20028;-76
2023/07/13 01:18:24;;;;;;;7.15;2.95;;;14.90;67.50;;;;;;5111877;28;20191;-76
2023/07/13 01:20:51;;;;;;;6.75;3.40;;;14.90;68.00;;;;;;5114770;28;20028;-76
2023/07/13 01:23:16;;;;;;;7.00;2.58;;;14.80;67.60;;;;;;5114867;28;20332;-76
2023/07/13 01:25:42;;;;;;;6.40;3.30;;;14.80;67.10;;;;;;5116228;28;20024;-76
2023/07/13 01:28:09;;;;;;;6.30;3.17;;;14.80;67.30;;;;;;5106457;28;20043;-76
2023/07/13 01:30:38;;;;;;;7.72;3.20;;;14.70;67.00;;;;;;5113839;28;20047;-75
2023/07/13 01:33:03;;;;;;;5.70;3.40;;;14.70;66.80;;;;;;5105802;28;20046;-76
2023/07/13 01:35:29;;;;;;;7.15;3.17;;;14.60;66.90;;;;;;5115886;28;20071;-76
2023/07/13 01:37:56;;;;;;;9.68;3.10;;;14.60;66.90;;;;;;5099135;28;20024;-77
2023/07/13 01:40:22;;;;;;;7.22;3.60;;;14.50;66.50;;;;;;5107289;28;20328;-76
2023/07/13 01:42:48;;;;;;;8.57;3.47;;;14.50;66.70;;;;;;5109516;28;20084;-76
2023/07/13 01:45:13;;;;;;;6.40;3.03;;;14.50;66.90;;;;;;5116473;28;20016;-76
2023/07/13 01:47:39;;;;;;;7.13;3.30;;;14.40;66.60;;;;;;5116290;28;20080;-76
2023/07/13 01:50:05;;;;;;;6.85;3.20;;;14.40;66.70;;;;;;5114889;28;20102;-76
2023/07/13 01:52:30;;;;;;;6.72;3.05;;;14.40;67.10;;;;;;5114459;28;20050;-76
2023/07/13 01:54:56;;;;;;;8.43;3.20;;;14.30;67.80;;;;;;5116397;28;20023;-76
2023/07/13 01:57:21;;;;;;;5.30;2.95;;;14.20;68.50;;;;;;5106827;28;20519;-76
2023/07/13 01:59:47;;;;;;;6.97;2.88;;;14.10;68.40;;;;;;5114742;28;20309;-76
2023/07/13 02:02:12;;;;;;;6.45;3.22;;;14.10;68.20;;;;;;5115979;28;20325;-76
2023/07/13 02:04:38;;;;;;;6.88;2.80;;;14.10;68.50;;;;;;5113106;28;20099;-76
2023/07/13 02:07:03;;;;;;;7.82;3.00;;;14.00;68.50;;;;;;5104119;28;20043;-76
2023/07/13 02:09:29;;;;;;;9.90;3.58;;;14.00;68.20;;;;;;5116167;28;20078;-76
2023/07/13 02:11:55;;;;;;;10.45;3.30;;;14.00;68.60;;;;;;5114880;28;20031;-77
2023/07/13 02:14:20;;;;;;;6.88;3.00;;;13.90;69.00;;;;;;5115908;28;20023;-76
2023/07/13 02:16:46;;;;;;;7.13;3.10;;;13.90;69.10;;;;;;5116106;28;20126;-76
2023/07/13 02:19:11;;;;;;;8.60;3.33;;;13.90;69.10;;;;;;5115574;28;20020;-76
2023/07/13 02:21:37;;;;;;;5.88;3.00;;;13.80;69.60;;;;;;5111530;28;20046;-76
2023/07/13 02:24:02;;;;;;;9.57;3.33;;;13.80;69.20;;;;;;5114826;28;20023;-76
2023/07/13 02:26:28;;;;;;;5.78;2.67;;;13.80;69.00;;;;;;5114584;28;20088;-76
2023/07/13 02:28:56;;;;;;;6.82;2.97;;;13.80;68.70;;;;;;5116121;28;20027;-76
2023/07/13 02:31:21;;;;;;;7.47;3.13;;;13.80;68.60;;;;;;5115550;28;20556;-76
2023/07/13 02:33:47;;;;;;;6.45;3.03;;;13.80;68.50;;;;;;5117062;27;20027;-76
2023/07/13 02:36:16;;;;;;;6.38;3.28;;;13.70;68.90;;;;;;5102557;28;20051;-76
2023/07/13 02:38:41;;;;;;;7.25;3.40;;;13.70;69.40;;;;;;5113467;28;20023;-76
2023/07/13 02:41:08;;;;;;;7.88;2.92;;;13.60;69.10;;;;;;5119105;28;20088;-76
2023/07/13 02:43:35;;;;;;;9.75;3.50;;;13.60;69.70;;;;;;5119805;28;20023;-78
2023/07/13 02:46:06;;;;;;;10.45;3.20;;;13.50;69.70;;;;;;5119014;28;20077;-77
2023/07/13 02:48:33;;;;;;;7.57;3.40;;;13.40;69.50;;;;;;5119132;28;20015;-76
2023/07/13 02:50:58;;;;;;;7.07;3.90;;;13.40;70.20;;;;;;5114457;28;20031;-76
2023/07/13 02:53:24;;;;;;;9.75;3.22;;;13.30;69.90;;;;;;5119609;28;20019;-77
2023/07/13 02:55:49;;;;;;;11.68;3.80;;;13.30;69.20;;;;;;5119631;28;20034;-77
2023/07/13 02:58:17;;;;;;;10.98;3.88;;;13.30;69.00;;;;;;5118267;28;20019;-77
2023/07/13 03:00:46;;;;;;;8.30;3.13;;;13.10;69.10;;;;;;5117752;28;20042;-77
2023/07/13 03:03:16;;;;;;;9.85;3.70;;;13.10;68.40;;;;;;5119380;28;20035;-77
2023/07/13 03:05:44;;;;;;;7.88;3.15;;;13.10;68.90;;;;;;5117458;28;20048;-76
2023/07/13 03:08:10;;;;;;;7.38;4.05;;;13.10;68.50;;;;;;5117107;28;20027;-76
2023/07/13 03:10:42;;;;;;;7.50;3.97;;;13.10;68.40;;;;;;5119093;28;20316;-77
2023/07/13 03:13:07;;;;;;;7.60;4.20;;;13.00;68.90;;;;;;5118230;28;20031;-77
2023/07/13 03:15:33;;;;;;;6.43;3.88;;;12.90;68.60;;;;;;5118582;28;20028;-77
2023/07/13 03:17:59;;;;;;;8.82;3.90;;;12.80;69.00;;;;;;5118835;28;20093;-77
2023/07/13 03:20:24;;;;;;;7.68;3.38;;;12.80;69.00;;;;;;5118923;28;20027;-77
2023/07/13 03:22:50;;;;;;;8.27;3.40;;;12.80;67.40;;;;;;5101367;28;20070;-77
2023/07/13 03:25:15;;;;;;;8.13;4.10;;;12.80;67.30;;;;;;5111632;28;20027;-78
2023/07/13 03:27:41;;;;;;;9.98;4.30;;;12.80;67.30;;;;;;5118421;28;20028;-77
2023/07/13 03:30:07;;;;;;;5.47;3.33;;;12.80;67.40;;;;;;5117728;28;20315;-78
2023/07/13 03:32:33;;;;;;;9.88;3.92;;;12.80;67.70;;;;;;5113658;28;20020;-77
2023/07/13 03:34:58;;;;;;;9.50;3.78;;;12.80;68.00;;;;;;5112996;27;20077;-77
2023/07/13 03:37:24;;;;;;;6.55;3.10;;;12.80;68.10;;;;;;5100469;28;20053;-78
2023/07/13 03:39:50;;;;;;;9.73;4.07;;;12.80;67.80;;;;;;5115549;28;20076;-77
2023/07/13 03:42:16;;;;;;;7.88;3.25;;;12.80;68.30;;;;;;5111492;28;20032;-78
2023/07/13 03:44:42;;;;;;;9.40;4.00;;;12.80;67.70;;;;;;5103698;28;20160;-77
2023/07/13 03:47:08;;;;;;;13.93;3.80;;;12.90;68.00;;;;;;5109934;28;20020;-78
2023/07/13 03:49:34;;;;;;;13.77;4.68;;;12.90;68.20;;;;;;5114169;28;20404;-77
2023/07/13 03:52:00;;;;;;;9.15;4.03;;;12.90;68.60;;;;;;5113558;28;20416;-77
2023/07/13 03:54:26;;;;;;;8.07;3.53;;;12.90;68.40;;;;;;5118255;28;20058;-77
2023/07/13 03:56:52;;;;;;;6.90;3.40;;;12.90;67.50;;;;;;5109235;27;20039;-77
2023/07/13 03:59:17;;;;;;;8.27;3.40;;;12.90;66.90;;;;;;5111030;28;20038;-76
2023/07/13 04:01:44;;;;;;;8.10;3.92;;;13.00;67.00;;;;;;5105961;27;20028;-76
2023/07/13 04:04:09;;;;;;;10.82;3.78;;;13.00;67.20;;;;;;5102005;28;20028;-76
2023/07/13 04:06:35;;;;;;;7.22;4.10;;;13.00;67.20;;;;;;5114606;28;20058;-77
2023/07/13 04:09:03;;;;;;;6.80;3.85;;;13.10;67.40;;;;;;5111469;27;20038;-77
2023/07/13 04:11:31;;;;;;;9.23;3.40;;;13.20;67.40;;;;;;5104851;27;20020;-78
2023/07/13 04:13:57;;;;;;;6.65;3.30;;;13.20;67.70;;;;;;5111178;28;20408;-78
2023/07/13 04:16:23;;;;;;;8.57;3.90;;;13.30;68.60;;;;;;5114388;28;20112;-78
2023/07/13 04:18:50;;;;;;;7.72;3.63;;;13.30;68.80;;;;;;5106995;27;20122;-78
2023/07/13 04:21:16;;;;;;;6.43;3.50;;;13.30;68.60;;;;;;5111426;28;20764;-78
2023/07/13 04:23:42;;;;;;;7.35;3.55;;;13.30;68.70;;;;;;5101742;27;20439;-78
2023/07/13 04:26:08;;;;;;;6.90;3.55;;;13.40;68.70;;;;;;5107593;28;20052;-78
2023/07/13 04:28:34;;;;;;;7.22;3.10;;;13.40;69.00;;;;;;5115828;28;20020;-78
2023/07/13 04:31:00;;;;;;;7.65;3.50;;;13.40;69.20;;;;;;5105672;28;20036;-78
2023/07/13 04:33:27;;;;;;;7.60;2.50;;;13.50;69.20;;;;;;5107115;28;20023;-78
2023/07/13 04:35:56;;;;;;;6.65;2.83;;;13.50;69.00;;;;;;5128895;27;20043;-78
2023/07/13 04:38:24;;;;;;;6.82;3.05;;;13.60;70.20;;;;;;5113421;28;20048;-79
2023/07/13 04:40:49;;;;;;;5.82;3.00;;;13.60;70.80;;;;;;5108062;28;20023;-78
2023/07/13 04:43:15;;;;;;;7.90;3.25;;;13.60;71.40;;;;;;5108781;28;20432;-78
2023/07/13 04:45:41;;;;;;;8.50;3.55;;;13.60;72.10;;;;;;5117341;28;20028;-78
2023/07/13 04:48:06;;;;;;;5.60;2.83;;;13.70;71.80;;;;;;5108046;28;20431;-78
2023/07/13 04:50:32;;;;;;;6.97;3.17;;;13.80;72.30;;;;;;5106920;28;20016;-78
2023/07/13 04:52:59;;;;;;;10.75;3.28;;;13.80;72.80;;;;;;5112798;28;20440;-78
2023/07/13 04:55:24;;;;;;;8.80;3.47;;;13.90;73.50;;;;;;5103565;28;20030;-78
2023/07/13 04:57:50;;;;;;;5.57;3.03;;;13.90;73.50;;;;;;5107882;28;20344;-78
2023/07/13 05:00:16;;;;;;;9.40;3.33;;;14.00;73.80;;;;;;5106055;28;20306;-79
2023/07/13 05:02:44;;;;;;;5.47;2.95;;;14.10;74.20;;;;;;5113387;28;20035;-79
2023/07/13 05:05:09;;;;;;;7.72;3.10;;;14.20;74.90;;;;;;5103278;28;20024;-79
2023/07/13 05:07:35;;;;;;;5.45;3.00;;;14.30;77.20;;;;;;5100103;28;20035;-78
2023/07/13 05:10:01;;;;;;;6.70;2.58;;;14.30;77.60;;;;;;5109534;28;20028;-78
2023/07/13 05:12:27;;;;;;;7.63;2.72;;;14.40;77.20;;;;;;5116443;28;20042;-78
2023/07/13 05:14:53;;;;;;;6.65;2.72;;;14.50;78.50;;;;;;5116630;28;20074;-78
2023/07/13 05:17:18;;;;;;;10.25;2.72;;;14.60;79.60;;;;;;5114364;28;20032;-79
2023/07/13 05:19:44;;;;;;;7.88;2.80;;;14.60;81.80;;;;;;5100993;28;20114;-78
2023/07/13 05:22:09;;;;;;;7.18;2.63;;;14.60;81.60;;;;;;5107696;28;20099;-78
2023/07/13 05:24:38;;;;;;;5.70;2.50;;;14.70;82.80;;;;;;5112142;28;20024;-78
2023/07/13 05:27:04;;;;;;;5.72;2.53;;;14.90;82.70;;;;;;5116213;28;20039;-78
2023/07/13 05:29:30;;;;;;;5.60;2.50;;;15.10;83.50;;;;;;5104187;28;20037;-78
2023/07/13 05:31:56;;;;;;;7.57;2.55;;;15.30;86.00;;;;;;5096242;28;20024;-78
2023/07/13 05:34:22;;;;;;;5.80;2.40;;;15.40;88.30;;;;;;5099957;28;20328;-78
2023/07/13 05:36:48;;;;;;;7.07;2.70;;;15.40;89.50;;;;;;5097695;28;20051;-78
2023/07/13 05:39:13;;;;;;;5.85;2.38;;;15.30;89.80;;;;;;5115338;28;20324;-78
2023/07/13 05:41:39;;;;;;;8.57;2.42;;;15.40;89.20;;;;;;5108353;28;20024;-78
2023/07/13 05:44:05;;;;;;;6.85;2.20;;;15.40;89.00;;;;;;5112862;28;20513;-78
2023/07/13 05:46:30;;;;;;;9.98;2.67;;;15.50;90.10;;;;;;5111643;28;20084;-78
2023/07/13 05:48:56;;;;;;;7.95;2.45;;;15.70;90.90;;;;;;5114115;28;20015;-79
2023/07/13 05:51:22;;;;;;;14.02;2.67;;;15.90;91.00;;;;;;5115367;28;20046;-78
2023/07/13 05:53:47;;;;;;;6.97;2.55;;;16.20;92.50;;;;;;5115800;28;20019;-79
2023/07/13 05:56:13;;;;;;;7.32;2.72;;;16.40;93.80;;;;;;5107238;28;20025;-77
2023/07/13 05:58:38;;;;;;;4.57;2.00;;;16.70;95.60;;;;;;5096651;28;20032;-77
2023/07/13 06:01:08;;;;;;;4.82;2.00;;;17.00;95.70;;;;;;5110100;28;20111;-77
2023/07/13 06:03:34;;;;;;;4.80;1.90;;;17.50;98.00;;;;;;5097787;28;20038;-76
2023/07/13 06:06:00;;;;;;;5.20;2.05;;;18.10;98.00;;;;;;5110651;28;20024;-78
2023/07/13 06:08:26;;;;;;;5.38;1.85;;;18.50;97.00;;;;;;5115703;28;20072;-76
2023/07/13 06:10:51;;;;;;;7.60;1.60;;;18.90;95.10;;;;;;5107957;28;20128;-77
2023/07/13 06:13:19;;;;;;;4.55;1.70;;;19.20;93.80;;;;;;5109377;28;20435;-78
2023/07/13 06:15:50;;;;;;;4.95;2.10;;;19.30;92.70;;;;;;5111951;28;20027;-76
2023/07/13 06:18:15;;;;;;;6.53;1.98;;;19.20;93.40;;;;;;5120284;28;20024;-76
2023/07/13 06:20:41;;;;;;;6.60;1.80;;;19.30;92.80;;;;;;5106259;28;20028;-77
2023/07/13 06:23:06;;;;;;;9.13;2.15;;;19.00;92.60;;;;;;5099770;28;20024;-77
2023/07/13 06:25:32;;;;;;;5.13;1.90;;;18.90;92.50;;;;;;5108307;28;20036;-77
2023/07/13 06:28:00;;;;;;;5.30;2.10;;;18.50;92.00;;;;;;5114689;28;20028;-77
2023/07/13 06:30:26;;;;;;;4.93;2.10;;;18.30;93.40;;;;;;5119960;28;20438;-78
2023/07/13 06:32:52;;;;;;;5.75;1.90;;;18.30;92.20;;;;;;5106163;28;20024;-76
2023/07/13 06:35:18;;;;;;;6.82;1.90;;;18.30;93.30;;;;;;5115525;28;20048;-77
2023/07/13 06:37:43;;;;;;;7.85;2.10;;;18.20;94.10;;;;;;5105333;28;20050;-77
2023/07/13 06:40:11;;;;;;;5.95;2.10;;;18.00;93.70;;;;;;5098560;28;20027;-76
2023/07/13 06:42:38;;;;;;;7.35;1.98;;;18.00;94.60;;;;;;5112140;28;20050;-77
2023/07/13 06:45:04;;;;;;;9.05;2.42;;;18.00;94.50;;;;;;5118557;28;20419;-77
2023/07/13 06:47:30;;;;;;;8.65;2.03;;;17.80;90.60;;;;;;5106886;28;20104;-77
2023/07/13 06:49:55;;;;;;;5.60;2.10;;;17.70;92.00;;;;;;5102112;28;20035;-77
2023/07/13 06:52:21;;;;;;;4.70;1.70;;;17.90;92.20;;;;;;5103888;28;20364;-75
2023/07/13 06:54:46;;;;;;;7.15;2.28;;;18.10;91.40;;;;;;5116372;28;20080;-75
2023/07/13 06:57:12;;;;;;;5.63;1.67;;;18.40;90.10;;;;;;5117893;28;20034;-75
2023/07/13 06:59:37;;;;;;;7.75;2.08;;;18.60;89.00;;;;;;5119445;28;20150;-75
2023/07/13 07:02:03;;;;;;;5.95;1.80;;;18.70;89.60;;;;;;5118539;28;20039;-77
2023/07/13 07:04:29;;;;;;;6.85;1.83;;;18.60;88.30;;;;;;5119434;28;20030;-77
2023/07/13 07:06:54;;;;;;;6.47;2.08;;;18.60;89.80;;;;;;5108866;28;20113;-77
2023/07/13 07:09:20;;;;;;;7.88;2.30;;;18.60;89.60;;;;;;5110033;28;20024;-77
2023/07/13 07:11:45;;;;;;;7.97;1.80;;;18.70;88.70;;;;;;5107743;28;20015;-77
2023/07/13 07:14:11;;;;;;;7.80;1.90;;;19.00;87.00;;;;;;5120231;27;20031;-77
2023/07/13 07:16:36;;;;;;;8.00;1.77;;;19.30;85.70;;;;;;5119123;28;20170;-77
2023/07/13 07:19:02;;;;;;;7.53;1.83;;;19.40;85.80;;;;;;5112597;28;20102;-77
2023/07/13 07:21:28;;;;;;;6.28;2.00;;;19.50;86.30;;;;;;5113080;28;20098;-77
2023/07/13 07:23:53;;;;;;;4.95;1.63;;;19.60;85.30;;;;;;5117292;28;20081;-77
2023/07/13 07:26:19;;;;;;;5.60;2.20;;;19.80;83.30;;;;;;5110686;28;20044;-77
2023/07/13 07:28:48;;;;;;;5.22;1.90;;;20.00;83.30;;;;;;5098623;28;20367;-77
2023/07/13 07:31:13;;;;;;;7.43;1.88;;;20.20;83.70;;;;;;5098369;28;20028;-77
2023/07/13 07:33:39;;;;;;;6.05;1.90;;;20.30;83.50;;;;;;5115368;28;20034;-77
2023/07/13 07:36:05;;;;;;;6.65;1.75;;;20.40;83.60;;;;;;5098781;28;20136;-77
2023/07/13 07:38:30;;;;;;;6.22;1.77;;;20.30;83.00;;;;;;5112238;28;20031;-77
2023/07/13 07:40:56;;;;;;;4.82;2.13;;;20.10;82.20;;;;;;5107223;28;20072;-77
2023/07/13 07:43:22;;;;;;;6.53;1.85;;;20.40;82.30;;;;;;5118697;28;20317;-78
2023/07/13 07:45:47;;;;;;;6.95;1.73;;;20.90;81.80;;;;;;5117669;28;20114;-78
2023/07/13 07:48:13;;;;;;;7.63;2.08;;;21.60;78.00;;;;;;5112602;28;20064;-78
2023/07/13 07:50:39;;;;;;;4.65;1.52;;;21.50;78.10;;;;;;5107513;28;20034;-78
2023/07/13 07:53:10;;;;;;;4.80;1.77;;;21.60;79.30;;;;;;5116940;28;20059;-78
2023/07/13 07:55:35;;;;;;;7.00;1.50;;;21.70;78.00;;;;;;5118336;28;20024;-78
2023/07/13 07:58:01;;;;;;;5.13;1.65;;;21.80;75.40;;;;;;5118383;28;20043;-78
2023/07/13 08:00:29;;;;;;;6.10;2.20;;;21.90;75.20;;;;;;5118457;28;20034;-78
2023/07/13 08:02:54;;;;;;;6.10;2.03;;;22.00;76.70;;;;;;5118186;28;20464;-78
2023/07/13 08:05:20;;;;;;;5.72;1.60;;;21.60;76.90;;;;;;5118300;28;20110;-79
2023/07/13 08:07:46;;;;;;;8.32;1.60;;;21.30;76.60;;;;;;5107560;28;20038;-78
2023/07/13 08:10:11;;;;;;;4.53;1.50;;;21.30;76.90;;;;;;5114257;28;20023;-78
2023/07/13 08:12:38;;;;;;;6.95;1.58;;;21.10;76.20;;;;;;5104148;28;20102;-79
2023/07/13 08:15:05;;;;;;;5.22;1.42;;;21.30;76.60;;;;;;5118053;28;20032;-79
2023/07/13 08:17:31;;;;;;;6.15;1.42;;;22.10;74.20;;;;;;5110983;28;20020;-77
2023/07/13 08:19:57;;;;;;;7.63;1.63;;;23.40;70.80;;;;;;5097560;28;20036;-78
2023/07/13 08:22:22;;;;;;;4.90;1.40;;;24.20;68.00;;;;;;5115251;28;20027;-78
2023/07/13 08:24:55;;;;;;;4.20;1.30;;;25.20;67.20;;;;;;5117894;28;20055;-80
2023/07/13 08:27:21;;;;;;;7.95;1.55;;;25.50;65.10;;;;;;5115140;28;20038;-79
2023/07/13 08:29:47;;;;;;;7.90;1.50;;;26.00;65.50;;;;;;5117278;28;20031;-78
2023/07/13 08:32:13;;;;;;;4.53;1.52;;;27.00;64.90;;;;;;5117581;28;20055;-78
2023/07/13 08:34:39;;;;;;;4.07;1.30;;;27.60;60.70;;;;;;5117679;28;20062;-78
2023/07/13 08:37:05;;;;;;;4.30;1.40;;;27.50;61.90;;;;;;5115002;28;20100;-78
2023/07/13 08:39:32;;;;;;;3.70;1.27;;;27.40;60.70;;;;;;5097186;28;20455;-78
2023/07/13 08:42:22;;;;;;;5.20;1.55;;;27.40;61.10;;;;;;5096084;28;20032;-78
2023/07/13 08:45:16;;;;;;;4.10;1.27;;;27.90;61.60;;;;;;5114004;28;20031;-78
2023/07/13 08:47:45;;;;;;;;;;;27.50;59.80;;;;;;5101669;28;20037;-78
2023/07/13 08:50:15;;;;;;;5.18;1.70;;;27.70;59.60;;;;;;5116294;28;19907;-78
2023/07/13 08:52:43;;;;;;;7.65;1.92;;;28.20;60.70;;;;;;5115967;28;20056;-78
2023/07/13 08:55:20;;;;;;;5.47;1.52;;;28.70;59.00;;;;;;5116672;28;20023;-78
2023/07/13 08:57:52;;;;;;;2.97;1.20;;;28.60;58.20;;;;;;5111294;28;20059;-78
2023/07/13 09:00:18;;;;;;;3.90;1.30;;;28.50;57.80;;;;;;5107145;28;20024;-78
2023/07/13 09:02:53;;;;;;;5.90;1.58;;;28.30;59.80;;;;;;5095768;28;20031;-78
2023/07/13 09:05:24;;;;;;;5.90;1.38;;;28.40;58.50;;;;;;5096774;28;20436;-78
2023/07/13 09:08:08;;;;;;;5.80;1.30;;;27.80;59.90;;;;;;5095588;28;20496;-78
2023/07/13 09:10:51;;;;;;;6.43;1.38;;;27.90;58.20;;;;;;5107600;28;20024;-78
2023/07/13 09:14:25;;;;;;;6.65;1.50;;;27.70;56.30;;;;;;5116155;28;20427;-78
2023/07/13 09:16:51;;;;;;;4.28;1.30;;;27.90;57.40;;;;;;5055147;27;20041;-78
2023/07/13 09:19:26;;;;;;;5.28;1.73;;;26.80;59.20;;;;;;5116504;28;20030;-78
2023/07/13 09:21:54;;;;;;;4.15;1.30;;;25.60;61.60;;;;;;5105509;28;20036;-78
2023/07/13 09:24:45;;;;;;;4.15;1.30;;;25.50;61.70;;;;;;5096529;28;20349;-78
2023/07/13 09:27:17;;;;;;;5.28;1.40;;;26.70;61.60;;;;;;5098058;28;20023;-78
2023/07/13 09:29:54;;;;;;;5.43;1.48;;;27.00;59.40;;;;;;5104154;28;20084;-78
2023/07/13 09:32:22;;;;;;;8.77;1.70;;;28.20;57.90;;;;;;5113566;28;20024;-78
2023/07/13 09:34:55;;;;;;;5.20;1.40;;;29.00;57.30;;;;;;5116602;28;20030;-78
2023/07/13 09:37:31;;;;;;;4.68;1.20;;;28.90;56.60;;;;;;5115205;28;20051;-78
2023/07/13 09:39:59;;;;;;;6.03;1.30;;;28.50;56.10;;;;;;5116616;28;20047;-78
2023/07/13 09:42:25;;;;;;;6.63;1.48;;;29.00;56.60;;;;;;5113808;28;20412;-78
2023/07/13 09:44:55;;;;;;;3.35;1.23;;;28.90;56.00;;;;;;5116064;28;20028;-77
2023/07/13 09:47:26;;;;;;;5.10;1.42;;;28.10;56.60;;;;;;5115828;28;20027;-76
2023/07/13 09:49:59;;;;;;;4.82;1.23;;;28.20;55.70;;;;;;5116549;28;20099;-76
2023/07/13 09:52:27;;;;;;;4.00;1.50;;;28.10;56.60;;;;;;5114017;28;20020;-76
2023/07/13 09:54:58;;;;;;;4.82;1.30;;;27.60;58.20;;;;;;5102207;28;20120;-76
2023/07/13 09:57:26;;;;;;;6.05;1.30;;;27.70;57.10;;;;;;5104804;28;20023;-78
2023/07/13 09:59:56;;;;;;;5.07;1.30;;;28.00;59.00;;;;;;5114722;28;20106;-78
2023/07/13 10:02:34;;;;;;;4.10;1.20;;;28.10;58.70;;;;;;5095879;28;20413;-78
2023/07/13 10:05:15;;;;;;;7.97;1.65;;;28.70;56.00;;;;;;5096034;28;20063;-78
2023/07/13 10:07:44;;;;;;;7.00;1.42;;;28.40;55.70;;;;;;5107522;28;20027;-77
2023/07/13 10:10:21;;;;;;;8.10;1.70;;;28.10;56.60;;;;;;5109386;28;20413;-77
2023/07/13 10:12:47;;;;;;;7.90;1.60;;;27.70;56.50;;;;;;5098140;28;20024;-78
2023/07/13 10:15:17;;;;;;;6.90;1.65;;;26.70;57.80;;;;;;5110593;28;20023;-77
2023/07/13 10:17:44;;;;;;;8.45;1.30;;;26.80;58.20;;;;;;5109483;28;20030;-77
2023/07/13 10:20:12;;;;;;;6.30;1.67;;;27.20;57.00;;;;;;5116266;28;20362;-77
2023/07/13 10:23:10;;;;;;;4.30;1.10;;;27.00;57.40;;;;;;5113208;28;20027;-77
2023/07/13 10:25:40;;;;;;;5.22;1.40;;;27.60;57.40;;;;;;5112274;28;20101;-77
2023/07/13 10:28:22;;;;;;;4.57;1.27;;;28.10;55.30;;;;;;5116097;28;20028;-77
2023/07/13 10:30:49;;;;;;;4.88;1.40;;;28.20;55.70;;;;;;5098646;28;20077;-77
2023/07/13 10:33:15;;;;;;;5.18;1.27;;;28.20;52.80;;;;;;5102692;28;20020;-77
2023/07/13 10:35:43;;;;;;;5.30;1.77;;;27.90;55.00;;;;;;5114569;28;20055;-77
2023/07/13 10:38:16;;;;;;;6.63;1.27;;;27.10;55.90;;;;;;5097724;28;20468;-77
2023/07/13 10:40:49;;;;;;;5.70;1.52;;;26.50;56.60;;;;;;5095801;28;20028;-77
2023/07/13 10:43:18;;;;;;;;;;;26.30;59.20;;;;;;5103203;28;20028;-77
2023/07/13 10:45:48;;;;;;;3.60;1.52;;;27.10;59.20;;;;;;5106418;28;20224;-77
2023/07/13 10:48:14;;;;;;;4.80;1.30;;;27.10;57.00;;;;;;5096285;28;20054;-77
2023/07/13 10:50:44;;;;;;;6.90;1.80;;;26.60;58.00;;;;;;5111981;28;20020;-77
2023/07/13 10:53:29;;;;;;;3.75;1.20;;;26.20;58.30;;;;;;5115977;28;20048;-77
2023/07/13 10:55:57;;;;;;;3.70;1.20;;;26.30;59.00;;;;;;5115033;28;20043;-77
2023/07/13 10:58:42;;;;;;;4.18;1.23;;;26.70;58.20;;;;;;5119422;28;20024;-77
2023/07/13 11:01:16;;;;;;;5.65;1.48;;;27.30;57.30;;;;;;5113866;28;20110;-77
2023/07/13 11:03:53;;;;;;;5.85;1.08;;;27.30;56.80;;;;;;5102442;28;20039;-77
2023/07/13 11:06:24;;;;;;;6.63;1.63;;;27.40;56.40;;;;;;5101310;28;20126;-77
2023/07/13 11:08:55;;;;;;;5.43;1.30;;;27.70;55.80;;;;;;5119268;28;20020;-77
2023/07/13 11:11:23;;;;;;;5.35;1.67;;;28.50;55.30;;;;;;5116948;28;20072;-76
2023/07/13 11:13:49;;;;;;;5.40;1.30;;;28.90;54.90;;;;;;5110183;28;20020;-76
2023/07/13 11:16:17;;;;;;;4.95;1.13;;;29.10;54.20;;;;;;5102623;28;20028;-77
2023/07/13 11:18:49;;;;;;;4.60;1.88;;;29.50;53.50;;;;;;5098859;28;20028;-77
2023/07/13 11:21:20;;;;;;;4.63;1.30;;;29.40;55.20;;;;;;5097475;28;20404;-76
2023/07/13 11:24:03;;;;;;;4.18;1.23;;;28.80;52.90;;;;;;5098680;28;20020;-77
2023/07/13 11:26:39;;;;;;;6.38;1.42;;;29.00;54.30;;;;;;5098581;28;20016;-77
2023/07/13 11:29:34;;;;;;;6.80;1.60;;;29.20;54.10;;;;;;5103956;28;20030;-77
2023/07/13 11:32:19;;;;;;;4.68;1.98;;;29.40;54.90;;;;;;5115827;28;20027;-77
2023/07/13 11:34:45;;;;;;;6.15;1.27;;;29.40;53.20;;;;;;5106739;28;20020;-78
2023/07/13 11:37:13;;;;;;;4.38;1.20;;;29.30;54.10;;;;;;5116820;28;20052;-77
2023/07/13 11:39:44;;;;;;;8.02;1.65;;;28.60;54.10;;;;;;5116103;28;20039;-77
2023/07/13 11:42:15;;;;;;;4.45;1.20;;;28.60;53.80;;;;;;5117652;28;20024;-78
2023/07/13 11:44:47;;;;;;;5.43;1.40;;;29.20;56.90;;;;;;5118650;28;20019;-77
2023/07/13 11:47:22;;;;;;;7.05;1.65;;;29.50;53.60;;;;;;5111636;28;20024;-77
2023/07/13 11:49:56;;;;;;;4.38;1.67;;;28.30;54.50;;;;;;5108096;28;20424;-78
2023/07/13 11:52:49;;;;;;;5.85;1.38;;;27.10;57.30;;;;;;5106276;28;20489;-77
2023/07/13 11:55:18;;;;;;;5.75;1.50;;;26.70;57.70;;;;;;5114559;28;20416;-77
2023/07/13 11:58:00;;;;;;;5.88;1.92;;;27.90;57.00;;;;;;5110253;28;20039;-77
2023/07/13 12:00:29;;;;;;;5.10;1.40;;;28.50;55.80;;;;;;5118209;28;20023;-77
2023/07/13 12:02:59;;;;;;;4.15;1.48;;;28.00;55.10;;;;;;5117330;28;20150;-78
2023/07/13 12:05:26;;;;;;;5.63;1.38;;;27.80;58.20;;;;;;5104529;28;20428;-77
2023/07/13 12:07:54;;;;;;;8.35;1.48;;;27.80;55.60;;;;;;5106585;28;20313;-77
2023/07/13 12:10:23;;;;;;;4.95;1.15;;;27.60;55.70;;;;;;5102207;28;20019;-77
2023/07/13 12:12:53;;;;;;;4.28;1.15;;;27.90;57.50;;;;;;5115654;28;20028;-77
2023/07/13 12:15:22;;;;;;;5.07;1.15;;;28.80;56.10;;;;;;5107672;28;20051;-76
2023/07/13 12:17:48;;;;;;;4.65;1.65;;;29.20;54.00;;;;;;5097742;28;20027;-77
2023/07/13 12:20:36;;;;;;;5.50;1.35;;;27.90;54.10;;;;;;5097504;28;20040;-79
2023/07/13 12:23:05;;;;;;;3.75;1.10;;;27.40;55.10;;;;;;5104014;28;20035;-78
2023/07/13 12:25:32;;;;;;;5.68;1.80;;;27.80;53.50;;;;;;5117121;28;20028;-78
2023/07/13 12:27:58;;;;;;;4.90;1.55;;;26.80;54.50;;;;;;5115842;28;20427;-76
2023/07/13 12:30:33;;;;;;;4.70;1.40;;;26.00;57.00;;;;;;5113956;28;20060;-77
2023/07/13 12:33:12;;;;;;;5.88;1.50;;;25.50;56.40;;;;;;5110055;28;20416;-78
2023/07/13 12:35:52;;;;;;;7.00;1.30;;;25.80;57.60;;;;;;5107055;28;20101;-77
2023/07/13 12:38:17;;;;;;;3.58;1.27;;;27.10;55.00;;;;;;5106994;28;20020;-77
2023/07/13 12:40:49;;;;;;;4.78;1.23;;;28.60;53.70;;;;;;5110612;28;20028;-76
2023/07/13 12:43:15;;;;;;;4.78;1.27;;;29.40;52.70;;;;;;5116068;28;20365;-75
2023/07/13 12:46:04;;;;;;;5.88;1.25;;;30.00;51.80;;;;;;5117438;28;20039;-75
2023/07/13 12:48:41;;;;;;;5.20;1.10;;;31.20;51.40;;;;;;5101132;28;20113;-76
2023/07/13 12:51:11;;;;;;;14.15;1.85;;;31.00;50.40;;;;;;5101655;28;20443;-75
2023/07/13 12:53:41;;;;;;;5.40;1.45;;;30.30;50.40;;;;;;5110465;28;20068;-77
2023/07/13 12:56:22;;;;;;;3.55;1.10;;;29.30;52.90;;;;;;5117331;28;20055;-77